Time;durP1;ratioP1;P1;durP2;ratioP2;P2;SDS_P1;SDS_P2;PMS_P1;PMS_P2;Temp;Humidity;BMP_temperature;BMP_pressure;BME280_temperature;BME280_humidity;BME280_pressure;Samples;Min_cycle;Max_cycle;Signal;HPM_P1;HPM_P2
2024/04/10 00:01:16;;;;;;;;;;;;;;;;;;5353042;26;89461;-67
2024/04/10 00:03:42;;;;;;;;;;;;;;;;;;5353929;26;87677;-67
2024/04/10 00:06:08;;;;;;;;;;;;;;;;;;5352377;26;87563;-70
2024/04/10 00:08:33;;;;;;;;;;;;;;;;;;5354920;26;88689;-71
2024/04/10 00:11:00;;;;;;;;;;;;;;;;;;5357211;26;87011;-69
2024/04/10 00:13:25;;;;;;;;;;;;;;;;;;5353973;26;88986;-70
2024/04/10 00:15:58;;;;;;;;;;;;;;;;;;5353985;26;87179;-72
2024/04/10 00:18:23;;;;;;;;;;;;;;;;;;5352164;26;87718;-67
2024/04/10 00:20:48;;;;;;;;;;;;;;;;;;5353775;26;87257;-71
2024/04/10 00:23:13;;;;;;;;;;;;;;;;;;5353222;26;87842;-72
2024/04/10 00:25:39;;;;;;;;;;;;;;;;;;5354436;26;87155;-67
2024/04/10 00:28:04;;;;;;;;;;;;;;;;;;5353687;26;87074;-71
2024/04/10 00:30:29;;;;;;;;;;;;;;;;;;5353790;26;86988;-71
2024/04/10 00:32:54;;;;;;;;;;;;;;;;;;5356957;26;87091;-71
2024/04/10 00:35:19;;;;;;;;;;;;;;;;;;5354192;26;87064;-72
2024/04/10 00:37:45;;;;;;;;;;;;;;;;;;5354404;26;86642;-67
2024/04/10 00:40:10;;;;;;;;;;;;;;;;;;5355280;26;87502;-71
2024/04/10 00:42:35;;;;;;;;;;;;;;;;;;5354550;26;87010;-71
2024/04/10 00:45:01;;;;;;;;;;;;;;;;;;5376309;26;87129;-71
2024/04/10 00:47:26;;;;;;;;;;;;;;;;;;5321168;26;87228;-70
2024/04/10 00:49:51;;;;;;;;;;;;;;;;;;5353549;26;89121;-73
2024/04/10 00:52:17;;;;;;;;;;;;;;;;;;5373661;26;87912;-67
2024/04/10 00:54:43;;;;;;;;;;;;;;;;;;5321502;26;87387;-72
2024/04/10 00:57:08;;;;;;;;;;;;;;;;;;5339497;26;86569;-72
2024/04/10 00:59:33;;;;;;;;;;;;;;;;;;5354626;26;88128;-72
2024/04/10 01:01:59;;;;;;;;;;;;;;;;;;5344170;26;87314;-71
2024/04/10 01:04:24;;;;;;;;;;;;;;;;;;5339589;26;87971;-71
2024/04/10 01:06:50;;;;;;;;;;;;;;;;;;5341156;26;86971;-72
2024/04/10 01:09:15;;;;;;;;;;;;;;;;;;5343716;26;87090;-69
2024/04/10 01:11:41;;;;;;;;;;;;;;;;;;5339794;26;86670;-67
2024/04/10 01:14:06;;;;;;;;;;;;;;;;;;5339279;26;87285;-71
2024/04/10 01:16:32;;;;;;;;;;;;;;;;;;5341902;26;87209;-68
2024/04/10 01:18:57;;;;;;;;;;;;;;;;;;5337667;26;87378;-71
2024/04/10 01:21:22;;;;;;;;;;;;;;;;;;5334219;26;87912;-68
2024/04/10 01:23:47;;;;;;;;;;;;;;;;;;5337830;26;86966;-70
2024/04/10 01:26:13;;;;;;;;;;;;;;;;;;5337886;26;88563;-67
2024/04/10 01:28:38;;;;;;;;;;;;;;;;;;5337488;26;86985;-70
2024/04/10 01:31:03;;;;;;;;;;;;;;;;;;5338920;26;87223;-71
2024/04/10 01:33:29;;;;;;;;;;;;;;;;;;5339422;26;87464;-70
2024/04/10 01:35:54;;;;;;;;;;;;;;;;;;5339145;26;87181;-70
2024/04/10 01:38:19;;;;;;;;;;;;;;;;;;5342910;26;87170;-69
2024/04/10 01:40:45;;;;;;;;;;;;;;;;;;5396180;25;89436;-71
2024/04/10 01:43:10;;;;;;;;;;;;;;;;;;5339793;26;86713;-70
2024/04/10 01:45:38;;;;;;;;;;;;;;;;;;5338798;26;87287;-71
2024/04/10 01:48:03;;;;;;;;;;;;;;;;;;5338457;26;88903;-71
2024/04/10 01:50:28;;;;;;;;;;;;;;;;;;5338592;26;87931;-70
2024/04/10 01:52:54;;;;;;;;;;;;;;;;;;5339008;26;89188;-68
2024/04/10 01:55:19;;;;;;;;;;;;;;;;;;5338954;26;87320;-71
2024/04/10 01:57:44;;;;;;;;;;;;;;;;;;5338379;26;86631;-68
2024/04/10 02:00:10;;;;;;;;;;;;;;;;;;5341780;26;86703;-73
2024/04/10 02:02:35;;;;;;;;;;;;;;;;;;5337301;26;86857;-71
2024/04/10 02:05:00;;;;;;;;;;;;;;;;;;5338351;26;88369;-72
2024/04/10 02:07:25;;;;;;;;;;;;;;;;;;5338686;26;86737;-72
2024/04/10 02:09:50;;;;;;;;;;;;;;;;;;5338731;26;87017;-68
2024/04/10 02:12:16;;;;;;;;;;;;;;;;;;5336726;26;89906;-70
2024/04/10 02:14:41;;;;;;;;;;;;;;;;;;5336402;26;86780;-66
2024/04/10 02:17:06;;;;;;;;;;;;;;;;;;5339340;26;86979;-70
2024/04/10 02:19:31;;;;;;;;;;;;;;;;;;5341271;26;87702;-72
2024/04/10 02:21:57;;;;;;;;;;;;;;;;;;5339294;26;86936;-71
2024/04/10 02:24:22;;;;;;;;;;;;;;;;;;5337540;26;88344;-69
2024/04/10 02:26:47;;;;;;;;;;;;;;;;;;5337972;26;88110;-71
2024/04/10 02:29:13;;;;;;;;;;;;;;;;;;5339344;26;87467;-71
2024/04/10 02:31:39;;;;;;;;;;;;;;;;;;5339584;26;87566;-71
2024/04/10 02:34:05;;;;;;;;;;;;;;;;;;5339037;26;87244;-71
2024/04/10 02:36:30;;;;;;;;;;;;;;;;;;5338836;26;86960;-69
2024/04/10 02:38:55;;;;;;;;;;;;;;;;;;5339099;26;88262;-71
2024/04/10 02:41:21;;;;;;;;;;;;;;;;;;5342488;26;87772;-71
2024/04/10 02:43:46;;;;;;;;;;;;;;;;;;5339212;26;87770;-71
2024/04/10 02:46:15;;;;;;;;;;;;;;;;;;5367228;26;88350;-70
2024/04/10 02:48:40;;;;;;;;;;;;;;;;;;5370883;26;87098;-72
2024/04/10 02:51:06;;;;;;;;;;;;;;;;;;5340194;26;89293;-70
2024/04/10 02:53:31;;;;;;;;;;;;;;;;;;5338414;26;88179;-72
2024/04/10 02:55:56;;;;;;;;;;;;;;;;;;5339351;26;88235;-73
2024/04/10 02:58:21;;;;;;;;;;;;;;;;;;5338895;26;89509;-72
2024/04/10 03:00:51;;;;;;;;;;;;;;;;;;5338697;26;87320;-72
2024/04/10 03:03:16;;;;;;;;;;;;;;;;;;5341290;26;87326;-73
2024/04/10 03:05:43;;;;;;;;;;;;;;;;;;5338150;26;87238;-71
2024/04/10 03:08:11;;;;;;;;;;;;;;;;;;5338929;26;87192;-71
2024/04/10 03:10:37;;;;;;;;;;;;;;;;;;5335485;26;89844;-67
2024/04/10 03:13:03;;;;;;;;;;;;;;;;;;5302998;26;87705;-71
2024/04/10 03:15:28;;;;;;;;;;;;;;;;;;5328493;26;88548;-72
2024/04/10 03:17:53;;;;;;;;;;;;;;;;;;5338352;26;87602;-68
2024/04/10 03:20:22;;;;;;;;;;;;;;;;;;5337635;26;87382;-66
2024/04/10 03:22:47;;;;;;;;;;;;;;;;;;5338226;26;86556;-67
2024/04/10 03:25:12;;;;;;;;;;;;;;;;;;5340773;26;89042;-68
2024/04/10 03:27:39;;;;;;;;;;;;;;;;;;5339279;26;86980;-71
2024/04/10 03:30:05;;;;;;;;;;;;;;;;;;5337475;26;87422;-67
2024/04/10 03:32:31;;;;;;;;;;;;;;;;;;5337504;26;87141;-70
2024/04/10 03:34:57;;;;;;;;;;;;;;;;;;5337928;26;86571;-68
2024/04/10 03:37:22;;;;;;;;;;;;;;;;;;5337352;26;88297;-69
2024/04/10 03:39:47;;;;;;;;;;;;;;;;;;5337837;26;87600;-68
2024/04/10 03:42:13;;;;;;;;;;;;;;;;;;5338101;26;87092;-68
2024/04/10 03:44:38;;;;;;;;;;;;;;;;;;5337934;26;87406;-71
2024/04/10 03:47:03;;;;;;;;;;;;;;;;;;5340382;26;88760;-70
2024/04/10 03:49:28;;;;;;;;;;;;;;;;;;5337633;26;87115;-70
2024/04/10 03:51:54;;;;;;;;;;;;;;;;;;5337761;26;87548;-70
2024/04/10 03:54:19;;;;;;;;;;;;;;;;;;5337042;26;87601;-69
2024/04/10 03:56:45;;;;;;;;;;;;;;;;;;5336840;26;88542;-71
2024/04/10 03:59:10;;;;;;;;;;;;;;;;;;5336501;26;87260;-72
2024/04/10 04:01:35;;;;;;;;;;;;;;;;;;5336636;26;86572;-72
2024/04/10 04:04:03;;;;;;;;;;;;;;;;;;5334137;26;89907;-72
2024/04/10 04:06:28;;;;;;;;;;;;;;;;;;5339305;26;87559;-69
2024/04/10 04:08:54;;;;;;;;;;;;;;;;;;5336773;26;87510;-68
2024/04/10 04:11:19;;;;;;;;;;;;;;;;;;5336077;26;87616;-70
2024/04/10 04:13:45;;;;;;;;;;;;;;;;;;5336849;26;86873;-71
2024/04/10 04:16:11;;;;;;;;;;;;;;;;;;5337471;26;87682;-72
2024/04/10 04:18:37;;;;;;;;;;;;;;;;;;5337383;26;87250;-73
2024/04/10 04:21:02;;;;;;;;;;;;;;;;;;5336040;26;86611;-71
2024/04/10 04:23:27;;;;;;;;;;;;;;;;;;5337730;26;87283;-67
2024/04/10 04:25:52;;;;;;;;;;;;;;;;;;5336588;26;87878;-72
2024/04/10 04:28:18;;;;;;;;;;;;;;;;;;5339078;26;87334;-68
2024/04/10 04:30:47;;;;;;;;;;;;;;;;;;5337464;26;87501;-70
2024/04/10 04:33:12;;;;;;;;;;;;;;;;;;5336097;26;87162;-71
2024/04/10 04:35:37;;;;;;;;;;;;;;;;;;5335918;26;87404;-70
2024/04/10 04:38:03;;;;;;;;;;;;;;;;;;5338053;26;86941;-71
2024/04/10 04:40:30;;;;;;;;;;;;;;;;;;5338529;26;87051;-72
2024/04/10 04:42:56;;;;;;;;;;;;;;;;;;5338997;26;88804;-71
2024/04/10 04:45:21;;;;;;;;;;;;;;;;;;5340937;26;88215;-70
2024/04/10 04:47:46;;;;;;;;;;;;;;;;;;5339744;26;88686;-72
2024/04/10 04:50:13;;;;;;;;;;;;;;;;;;5340889;26;90140;-68
2024/04/10 04:52:39;;;;;;;;;;;;;;;;;;5337728;26;87094;-72
2024/04/10 04:55:04;;;;;;;;;;;;;;;;;;5340407;26;87355;-71
2024/04/10 04:57:30;;;;;;;;;;;;;;;;;;5339501;26;87052;-68
2024/04/10 04:59:55;;;;;;;;;;;;;;;;;;5338755;26;87124;-69
2024/04/10 05:02:20;;;;;;;;;;;;;;;;;;5339084;26;87201;-70
2024/04/10 05:04:58;;;;;;;;;;;;;;;;;;5338461;26;87350;-72
2024/04/10 05:07:23;;;;;;;;;;;;;;;;;;5337979;26;86889;-72
2024/04/10 05:09:51;;;;;;;;;;;;;;;;;;5339285;26;88277;-71
2024/04/10 05:12:17;;;;;;;;;;;;;;;;;;5342401;26;87889;-72
2024/04/10 05:14:51;;;;;;;;;;;;;;;;;;5339914;26;88486;-72
2024/04/10 05:17:17;;;;;;;;;;;;;;;;;;5339156;26;87128;-72
2024/04/10 05:19:42;;;;;;;;;;;;;;;;;;5339442;26;87411;-68
2024/04/10 05:22:07;;;;;;;;;;;;;;;;;;5339137;26;87249;-68
2024/04/10 05:24:33;;;;;;;;;;;;;;;;;;5336314;26;88299;-71
2024/04/10 05:26:59;;;;;;;;;;;;;;;;;;5339150;26;87231;-73
2024/04/10 05:29:24;;;;;;;;;;;;;;;;;;5338860;26;87346;-71
2024/04/10 05:31:49;;;;;;;;;;;;;;;;;;5338007;26;86960;-71
2024/04/10 05:34:15;;;;;;;;;;;;;;;;;;5340828;26;87234;-68
2024/04/10 05:36:40;;;;;;;;;;;;;;;;;;5335858;26;89587;-68
2024/04/10 05:39:05;;;;;;;;;;;;;;;;;;5337010;26;87067;-70
2024/04/10 05:41:31;;;;;;;;;;;;;;;;;;5338872;26;87442;-68
2024/04/10 05:43:56;;;;;;;;;;;;;;;;;;5337225;26;89730;-70
2024/04/10 05:46:22;;;;;;;;;;;;;;;;;;5336669;26;86619;-69
2024/04/10 05:48:47;;;;;;;;;;;;;;;;;;5337178;26;88107;-69
2024/04/10 05:51:12;;;;;;;;;;;;;;;;;;5336616;26;87337;-68
2024/04/10 05:53:37;;;;;;;;;;;;;;;;;;5334468;26;87215;-69
2024/04/10 05:56:04;;;;;;;;;;;;;;;;;;5339236;26;88434;-68
2024/04/10 05:58:29;;;;;;;;;;;;;;;;;;5337313;26;86587;-68
2024/04/10 06:00:54;;;;;;;;;;;;;;;;;;5336925;26;88016;-70
2024/04/10 06:03:20;;;;;;;;;;;;;;;;;;5336831;26;88534;-69
2024/04/10 06:05:45;;;;;;;;;;;;;;;;;;5337309;26;87187;-68
2024/04/10 06:08:10;;;;;;;;;;;;;;;;;;5336902;26;87365;-69
2024/04/10 06:10:35;;;;;;;;;;;;;;;;;;5337741;26;87106;-69
2024/04/10 06:13:01;;;;;;;;;;;;;;;;;;5337265;26;86892;-68
2024/04/10 06:15:26;;;;;;;;;;;;;;;;;;5339759;26;87519;-69
2024/04/10 06:17:51;;;;;;;;;;;;;;;;;;5336162;26;86915;-70
2024/04/10 06:20:16;;;;;;;;;;;;;;;;;;5336580;26;87247;-69
2024/04/10 06:22:41;;;;;;;;;;;;;;;;;;5336520;26;87029;-68
2024/04/10 06:25:07;;;;;;;;;;;;;;;;;;5337275;26;86979;-68
2024/04/10 06:27:32;;;;;;;;;;;;;;;;;;5337161;26;87232;-69
2024/04/10 06:29:57;;;;;;;;;;;;;;;;;;5343420;26;89393;-69
2024/04/10 06:32:22;;;;;;;;;;;;;;;;;;5335742;26;86987;-67
2024/04/10 06:34:48;;;;;;;;;;;;;;;;;;5313269;26;87810;-67
2024/04/10 06:37:15;;;;;;;;;;;;;;;;;;5322641;26;87930;-71
2024/04/10 06:39:40;;;;;;;;;;;;;;;;;;5280386;25;87864;-73
2024/04/10 06:42:06;;;;;;;;;;;;;;;;;;5261279;26;88452;-68
2024/04/10 06:44:31;;;;;;;;;;;;;;;;;;5237074;26;86933;-70
2024/04/10 06:46:57;;;;;;;;;;;;;;;;;;5266799;26;90505;-72
2024/04/10 06:49:22;;;;;;;;;;;;;;;;;;5266585;26;87881;-72
2024/04/10 06:51:48;;;;;;;;;;;;;;;;;;5265110;26;87385;-71
2024/04/10 06:54:14;;;;;;;;;;;;;;;;;;5266672;26;88096;-72
2024/04/10 06:56:40;;;;;;;;;;;;;;;;;;5292750;26;88256;-73
2024/04/10 06:59:05;;;;;;;;;;;;;;;;;;5268819;26;88285;-73
2024/04/10 07:01:30;;;;;;;;;;;;;;;;;;5266740;26;88075;-69
2024/04/10 07:03:56;;;;;;;;;;;;;;;;;;5266721;26;86714;-68
2024/04/10 07:06:21;;;;;;;;;;;;;;;;;;5265206;26;90066;-67
2024/04/10 07:08:47;;;;;;;;;;;;;;;;;;5256461;26;88165;-73
2024/04/10 07:11:15;;;;;;;;;;;;;;;;;;5276491;26;88199;-69
2024/04/10 07:13:47;;;;;;;;;;;;;;;;;;5257266;26;87376;-68
2024/04/10 07:16:12;;;;;;;;;;;;;;;;;;5265572;26;87841;-73
2024/04/10 07:18:38;;;;;;;;;;;;;;;;;;5265894;26;87246;-73
2024/04/10 07:21:04;;;;;;;;;;;;;;;;;;5268942;26;87493;-73
2024/04/10 07:23:30;;;;;;;;;;;;;;;;;;5266551;26;87074;-71
2024/04/10 07:26:05;;;;;;;;;;;;;;;;;;5259202;26;90699;-71
2024/04/10 07:28:30;;;;;;;;;;;;;;;;;;5231966;26;90187;-67
2024/04/10 07:30:56;;;;;;;;;;;;;;;;;;5266002;26;87895;-69
2024/04/10 07:33:21;;;;;;;;;;;;;;;;;;5266345;26;87420;-71
2024/04/10 07:35:46;;;;;;;;;;;;;;;;;;5267542;26;87442;-66
2024/04/10 07:38:11;;;;;;;;;;;;;;;;;;5267774;26;86595;-68
2024/04/10 07:40:37;;;;;;;;;;;;;;;;;;5266311;26;87408;-68
2024/04/10 07:43:02;;;;;;;;;;;;;;;;;;5270118;26;87021;-69
2024/04/10 07:45:27;;;;;;;;;;;;;;;;;;5268177;26;88525;-73
2024/04/10 07:47:53;;;;;;;;;;;;;;;;;;5265634;26;89870;-71
2024/04/10 07:50:19;;;;;;;;;;;;;;;;;;5264493;26;87461;-72
2024/04/10 07:52:44;;;;;;;;;;;;;;;;;;5268178;26;87627;-69
2024/04/10 07:55:09;;;;;;;;;;;;;;;;;;5265536;26;87185;-70
2024/04/10 07:57:34;;;;;;;;;;;;;;;;;;5265989;26;86609;-72
2024/04/10 08:00:00;;;;;;;;;;;;;;;;;;5256458;26;88027;-72
2024/04/10 08:02:25;;;;;;;;;;;;;;;;;;5256197;26;87883;-68
2024/04/10 08:04:50;;;;;;;;;;;;;;;;;;5265377;26;87068;-70
2024/04/10 08:07:16;;;;;;;;;;;;;;;;;;5292618;26;87823;-73
2024/04/10 08:09:42;;;;;;;;;;;;;;;;;;5266577;26;87446;-72
2024/04/10 08:12:07;;;;;;;;;;;;;;;;;;5261057;26;87202;-71
2024/04/10 08:14:32;;;;;;;;;;;;;;;;;;5264367;26;86965;-68
2024/04/10 08:16:58;;;;;;;;;;;;;;;;;;5268294;26;86681;-72
2024/04/10 08:19:23;;;;;;;;;;;;;;;;;;5263640;26;87620;-73
2024/04/10 08:21:48;;;;;;;;;;;;;;;;;;5261581;26;87641;-73
2024/04/10 08:24:14;;;;;;;;;;;;;;;;;;5269752;26;87201;-72
2024/04/10 08:26:40;;;;;;;;;;;;;;;;;;5242344;26;87477;-70
2024/04/10 08:29:09;;;;;;;;;;;;;;;;;;5233803;26;86669;-73
2024/04/10 08:31:34;;;;;;;;;;;;;;;;;;5257304;26;88165;-68
2024/04/10 08:34:00;;;;;;;;;;;;;;;;;;5267540;26;86965;-70
2024/04/10 08:36:27;;;;;;;;;;;;;;;;;;5265131;26;87173;-70
2024/04/10 08:38:52;;;;;;;;;;;;;;;;;;5267773;26;88650;-68
2024/04/10 08:41:21;;;;;;;;;;;;;;;;;;5267998;26;87985;-67
2024/04/10 08:43:47;;;;;;;;;;;;;;;;;;5267613;26;87433;-67
2024/04/10 08:46:13;;;;;;;;;;;;;;;;;;5269994;26;87601;-69
2024/04/10 08:48:40;;;;;;;;;;;;;;;;;;5266960;26;87261;-70
2024/04/10 08:51:15;;;;;;;;;;;;;;;;;;5267463;26;87448;-73
2024/04/10 08:53:42;;;;;;;;;;;;;;;;;;5267463;26;88253;-71
2024/04/10 08:56:08;;;;;;;;;;;;;;;;;;5285127;26;87234;-71
2024/04/10 08:58:33;;;;;;;;;;;;;;;;;;5276868;26;87094;-72
2024/04/10 09:00:59;;;;;;;;;;;;;;;;;;5310061;26;88325;-72
2024/04/10 09:03:24;;;;;;;;;;;;;;;;;;5262640;26;87090;-71
2024/04/10 09:05:50;;;;;;;;;;;;;;;;;;5268114;26;87638;-71
2024/04/10 09:08:15;;;;;;;;;;;;;;;;;;5270797;26;87335;-72
2024/04/10 09:10:40;;;;;;;;;;;;;;;;;;5268102;26;87738;-71
2024/04/10 09:13:06;;;;;;;;;;;;;;;;;;5267631;26;86822;-71
2024/04/10 09:15:32;;;;;;;;;;;;;;;;;;5267310;26;87281;-68
2024/04/10 09:17:58;;;;;;;;;;;;;;;;;;5267909;26;87480;-72
2024/04/10 09:20:23;;;;;;;;;;;;;;;;;;5288424;26;89537;-71
2024/04/10 09:23:08;;;;;;;;;;;;;;;;;;5267107;26;87394;-72
2024/04/10 09:25:35;;;;;;;;;;;;;;;;;;5270982;26;88341;-72
2024/04/10 09:28:05;;;;;;;;;;;;;;;;;;5272229;26;87991;-73
2024/04/10 09:30:30;;;;;;;;;;;;;;;;;;5255603;26;87446;-74
2024/04/10 09:32:57;;;;;;;;;;;;;;;;;;5260519;26;87166;-74
2024/04/10 09:35:24;;;;;;;;;;;;;;;;;;5266412;26;87109;-71
2024/04/10 09:37:49;;;;;;;;;;;;;;;;;;5267280;26;87634;-73
2024/04/10 09:40:16;;;;;;;;;;;;;;;;;;5265969;26;87515;-69
2024/04/10 09:42:46;;;;;;;;;;;;;;;;;;5266439;26;87864;-73
2024/04/10 09:45:15;;;;;;;;;;;;;;;;;;5266497;26;87852;-69
2024/04/10 09:47:43;;;;;;;;;;;;;;;;;;5259992;26;87323;-70
2024/04/10 09:50:12;;;;;;;;;;;;;;;;;;5266422;26;87281;-69
2024/04/10 09:52:39;;;;;;;;;;;;;;;;;;5267996;26;89248;-68
2024/04/10 09:55:04;;;;;;;;;;;;;;;;;;5259090;26;88753;-70
2024/04/10 09:57:30;;;;;;;;;;;;;;;;;;5264047;26;88593;-69
2024/04/10 09:59:55;;;;;;;;;;;;;;;;;;5266406;26;87883;-71
2024/04/10 10:02:20;;;;;;;;;;;;;;;;;;5267613;26;87316;-71
2024/04/10 10:04:46;;;;;;;;;;;;;;;;;;5268291;26;87706;-71
2024/04/10 10:07:21;;;;;;;;;;;;;;;;;;5259218;26;88193;-73
2024/04/10 10:09:46;;;;;;;;;;;;;;;;;;5260634;26;87037;-68
2024/04/10 10:12:12;;;;;;;;;;;;;;;;;;5292130;26;87283;-71
2024/04/10 10:14:37;;;;;;;;;;;;;;;;;;5268824;26;86913;-68
2024/04/10 10:17:08;;;;;;;;;;;;;;;;;;5266192;26;87207;-69
2024/04/10 10:19:35;;;;;;;;;;;;;;;;;;5266309;26;87806;-69
2024/04/10 10:22:01;;;;;;;;;;;;;;;;;;5265472;26;87440;-67
2024/04/10 10:24:29;;;;;;;;;;;;;;;;;;5264779;26;88017;-70
2024/04/10 10:26:58;;;;;;;;;;;;;;;;;;5265017;26;87552;-70
2024/04/10 10:29:24;;;;;;;;;;;;;;;;;;5265483;26;87696;-72
2024/04/10 10:32:00;;;;;;;;;;;;;;;;;;5265607;26;87666;-73
2024/04/10 10:34:25;;;;;;;;;;;;;;;;;;5264700;26;87338;-74
2024/04/10 10:36:51;;;;;;;;;;;;;;;;;;5266255;26;87445;-74
2024/04/10 10:39:18;;;;;;;;;;;;;;;;;;5264295;26;87013;-75
2024/04/10 10:41:44;;;;;;;;;;;;;;;;;;5263750;26;88565;-73
2024/04/10 10:44:09;;;;;;;;;;;;;;;;;;5264974;26;90427;-74
2024/04/10 10:46:35;;;;;;;;;;;;;;;;;;5263727;26;86963;-73
2024/04/10 10:49:02;;;;;;;;;;;;;;;;;;5268570;26;86812;-74
2024/04/10 10:51:27;;;;;;;;;;;;;;;;;;5262734;26;87509;-75
2024/04/10 10:53:53;;;;;;;;;;;;;;;;;;5269114;26;87566;-68
2024/04/10 10:56:24;;;;;;;;;;;;;;;;;;5271322;26;87339;-71
2024/04/10 10:58:49;;;;;;;;;;;;;;;;;;5267943;26;87460;-73
2024/04/10 11:01:15;;;;;;;;;;;;;;;;;;5270908;26;86857;-74
2024/04/10 11:03:40;;;;;;;;;;;;;;;;;;5272678;26;87377;-70
2024/04/10 11:06:09;;;;;;;;;;;;;;;;;;5272407;26;87431;-74
2024/04/10 11:08:34;;;;;;;;;;;;;;;;;;5266724;26;86792;-70
2024/04/10 11:10:59;;;;;;;;;;;;;;;;;;5264598;26;89040;-73
2024/04/10 11:13:25;;;;;;;;;;;;;;;;;;5265994;26;87683;-72
2024/04/10 11:15:50;;;;;;;;;;;;;;;;;;5267202;26;86990;-69
2024/04/10 11:18:19;;;;;;;;;;;;;;;;;;5267095;26;87561;-72
2024/04/10 11:20:45;;;;;;;;;;;;;;;;;;5259617;26;87534;-73
2024/04/10 11:23:10;;;;;;;;;;;;;;;;;;5267560;26;88286;-73
2024/04/10 11:25:35;;;;;;;;;;;;;;;;;;5263030;26;87445;-69
2024/04/10 11:28:01;;;;;;;;;;;;;;;;;;5260121;26;87571;-70
2024/04/10 11:30:27;;;;;;;;;;;;;;;;;;5292759;26;90917;-67
2024/04/10 11:32:55;;;;;;;;;;;;;;;;;;5265973;26;87609;-67
2024/04/10 11:35:21;;;;;;;;;;;;;;;;;;5265630;26;87200;-73
2024/04/10 11:37:50;;;;;;;;;;;;;;;;;;5266994;26;87456;-72
2024/04/10 11:40:16;;;;;;;;;;;;;;;;;;5268154;26;88382;-73
2024/04/10 11:42:41;;;;;;;;;;;;;;;;;;5266902;26;88016;-74
2024/04/10 11:45:09;;;;;;;;;;;;;;;;;;5266420;26;87511;-73
2024/04/10 11:47:37;;;;;;;;;;;;;;;;;;5266551;26;88813;-72
2024/04/10 11:50:04;;;;;;;;;;;;;;;;;;5266236;26;87067;-72
2024/04/10 11:52:30;;;;;;;;;;;;;;;;;;5266119;26;87935;-69
2024/04/10 11:54:57;;;;;;;;;;;;;;;;;;5265955;26;86684;-72
2024/04/10 11:57:22;;;;;;;;;;;;;;;;;;5265537;26;87694;-72
2024/04/10 11:59:47;;;;;;;;;;;;;;;;;;5265817;26;87994;-70
2024/04/10 12:02:12;;;;;;;;;;;;;;;;;;5268703;26;87365;-69
2024/04/10 12:04:37;;;;;;;;;;;;;;;;;;5265310;26;87347;-68
2024/04/10 12:07:03;;;;;;;;;;;;;;;;;;5266736;26;86778;-74
2024/04/10 12:09:28;;;;;;;;;;;;;;;;;;5266581;26;87797;-72
2024/04/10 12:11:53;;;;;;;;;;;;;;;;;;5266917;26;87454;-73
2024/04/10 12:14:19;;;;;;;;;;;;;;;;;;5267454;26;86989;-70
2024/04/10 12:16:45;;;;;;;;;;;;;;;;;;5266259;26;86846;-71
2024/04/10 12:19:10;;;;;;;;;;;;;;;;;;5267572;26;87085;-74
2024/04/10 12:21:35;;;;;;;;;;;;;;;;;;5267183;26;87659;-77
2024/04/10 12:24:02;;;;;;;;;;;;;;;;;;5275735;26;87487;-72
2024/04/10 12:26:30;;;;;;;;;;;;;;;;;;5267051;26;89959;-73
2024/04/10 12:28:56;;;;;;;;;;;;;;;;;;5270124;26;90384;-74
2024/04/10 12:31:21;;;;;;;;;;;;;;;;;;5265929;26;88136;-73
2024/04/10 12:33:47;;;;;;;;;;;;;;;;;;5256379;26;87793;-74
2024/04/10 12:38:56;;;;;;;;;;;;;;;;;;5258145;26;87173;-70
2024/04/10 12:41:21;;;;;;;;;;;;;;;;;;5246406;26;87221;-71
2024/04/10 12:43:48;;;;;;;;;;;;;;;;;;5259143;26;88149;-73
2024/04/10 12:46:15;;;;;;;;;;;;;;;;;;5261325;26;87946;-73
2024/04/10 12:48:40;;;;;;;;;;;;;;;;;;5244973;26;87664;-73
2024/04/10 12:51:05;;;;;;;;;;;;;;;;;;5258967;26;87412;-73
2024/04/10 12:53:31;;;;;;;;;;;;;;;;;;5255906;26;87547;-69
2024/04/10 12:55:57;;;;;;;;;;;;;;;;;;5256804;26;88126;-69
2024/04/10 12:58:22;;;;;;;;;;;;;;;;;;5254226;26;87565;-68
2024/04/10 13:00:47;;;;;;;;;;;;;;;;;;5242371;26;87614;-71
2024/04/10 13:03:17;;;;;;;;;;;;;;;;;;5246383;26;89064;-73
2024/04/10 13:05:42;;;;;;;;;;;;;;;;;;5242045;26;87368;-69
2024/04/10 13:08:08;;;;;;;;;;;;;;;;;;5253107;26;87815;-73
2024/04/10 13:10:33;;;;;;;;;;;;;;;;;;5246551;26;87795;-74
2024/04/10 13:12:58;;;;;;;;;;;;;;;;;;5249446;26;87480;-71
2024/04/10 13:15:24;;;;;;;;;;;;;;;;;;5257992;26;87600;-71
2024/04/10 13:17:49;;;;;;;;;;;;;;;;;;5257070;26;87006;-77
2024/04/10 13:20:14;;;;;;;;;;;;;;;;;;5276453;26;87439;-76
2024/04/10 13:22:39;;;;;;;;;;;;;;;;;;5262977;26;90269;-75
2024/04/10 13:25:06;;;;;;;;;;;;;;;;;;5271790;26;88558;-73
2024/04/10 13:27:31;;;;;;;;;;;;;;;;;;5271786;26;87843;-74
2024/04/10 13:29:56;;;;;;;;;;;;;;;;;;5264414;26;87370;-71
2024/04/10 13:32:21;;;;;;;;;;;;;;;;;;5258352;26;87815;-73
2024/04/10 13:34:47;;;;;;;;;;;;;;;;;;5294674;26;90079;-70
2024/04/10 13:37:15;;;;;;;;;;;;;;;;;;5251459;26;87826;-69
2024/04/10 13:39:40;;;;;;;;;;;;;;;;;;5247000;26;87363;-73
2024/04/10 13:42:06;;;;;;;;;;;;;;;;;;5256750;26;89147;-75
2024/04/10 13:44:31;;;;;;;;;;;;;;;;;;5251646;26;87503;-70
2024/04/10 13:46:56;;;;;;;;;;;;;;;;;;5249936;26;87277;-75
2024/04/10 13:49:21;;;;;;;;;;;;;;;;;;5256374;26;87707;-76
2024/04/10 13:51:46;;;;;;;;;;;;;;;;;;5286387;26;87607;-76
2024/04/10 13:54:12;;;;;;;;;;;;;;;;;;5248603;26;87671;-75
2024/04/10 13:56:37;;;;;;;;;;;;;;;;;;5260106;26;87683;-75
2024/04/10 13:59:03;;;;;;;;;;;;;;;;;;5258142;26;87288;-75
2024/04/10 14:01:28;;;;;;;;;;;;;;;;;;5259559;26;87698;-71
2024/04/10 14:03:54;;;;;;;;;;;;;;;;;;5271698;26;87404;-70
2024/04/10 14:06:20;;;;;;;;;;;;;;;;;;5253246;26;88173;-74
2024/04/10 14:08:46;;;;;;;;;;;;;;;;;;5256859;26;89681;-75
2024/04/10 14:11:12;;;;;;;;;;;;;;;;;;5254574;26;88511;-71
2024/04/10 14:13:39;;;;;;;;;;;;;;;;;;5284254;26;90727;-70
2024/04/10 14:16:05;;;;;;;;;;;;;;;;;;5258652;26;87466;-72
2024/04/10 14:18:30;;;;;;;;;;;;;;;;;;5261709;26;86879;-73
2024/04/10 14:21:07;;;;;;;;;;;;;;;;;;5248744;26;87668;-71
2024/04/10 14:23:32;;;;;;;;;;;;;;;;;;5248790;26;87600;-73
2024/04/10 14:26:00;;;;;;;;;;;;;;;;;;5250209;26;87453;-70
2024/04/10 14:28:25;;;;;;;;;;;;;;;;;;5250830;26;87744;-70
2024/04/10 14:31:00;;;;;;;;;;;;;;;;;;5255455;26;87151;-72
2024/04/10 14:33:28;;;;;;;;;;;;;;;;;;5242646;26;87728;-71
2024/04/10 14:35:53;;;;;;;;;;;;;;;;;;5259641;26;87159;-73
2024/04/10 14:38:19;;;;;;;;;;;;;;;;;;5248084;26;88807;-75
2024/04/10 14:40:44;;;;;;;;;;;;;;;;;;5246708;26;87338;-72
2024/04/10 14:43:09;;;;;;;;;;;;;;;;;;5247416;26;89315;-73
2024/04/10 14:45:34;;;;;;;;;;;;;;;;;;5264847;26;88137;-74
2024/04/10 14:47:59;;;;;;;;;;;;;;;;;;5255227;26;88170;-75
2024/04/10 14:50:24;;;;;;;;;;;;;;;;;;5247854;26;87832;-73
2024/04/10 14:52:50;;;;;;;;;;;;;;;;;;5276895;26;87950;-73
2024/04/10 14:55:15;;;;;;;;;;;;;;;;;;5298856;26;90212;-71
2024/04/10 14:57:41;;;;;;;;;;;;;;;;;;5261399;26;86977;-72
2024/04/10 15:00:08;;;;;;;;;;;;;;;;;;5263215;26;87577;-73
2024/04/10 15:02:33;;;;;;;;;;;;;;;;;;5260753;26;87687;-73
2024/04/10 15:04:59;;;;;;;;;;;;;;;;;;5262445;26;88217;-71
2024/04/10 15:07:24;;;;;;;;;;;;;;;;;;5248618;26;89338;-74
2024/04/10 15:09:49;;;;;;;;;;;;;;;;;;5251249;26;86967;-71
2024/04/10 15:12:14;;;;;;;;;;;;;;;;;;5243940;26;87242;-71
2024/04/10 15:14:40;;;;;;;;;;;;;;;;;;5261865;26;88852;-68
2024/04/10 15:17:05;;;;;;;;;;;;;;;;;;5242704;26;88372;-73
2024/04/10 15:19:32;;;;;;;;;;;;;;;;;;5237050;26;90496;-69
2024/04/10 15:21:58;;;;;;;;;;;;;;;;;;5266163;26;88221;-73
2024/04/10 15:24:23;;;;;;;;;;;;;;;;;;5256038;26;86791;-73
2024/04/10 15:26:49;;;;;;;;;;;;;;;;;;5262304;26;87347;-75
2024/04/10 15:29:14;;;;;;;;;;;;;;;;;;5239889;26;87251;-73
2024/04/10 15:31:40;;;;;;;;;;;;;;;;;;5264393;26;87338;-73
2024/04/10 15:34:06;;;;;;;;;;;;;;;;;;5265898;26;87497;-72
2024/04/10 15:36:31;;;;;;;;;;;;;;;;;;5257486;26;87327;-73
2024/04/10 15:38:58;;;;;;;;;;;;;;;;;;5241884;26;87139;-73
2024/04/10 15:41:23;;;;;;;;;;;;;;;;;;5251405;26;87089;-73
2024/04/10 15:43:50;;;;;;;;;;;;;;;;;;5260323;26;89388;-71
2024/04/10 15:46:17;;;;;;;;;;;;;;;;;;5258313;26;88725;-70
2024/04/10 15:48:43;;;;;;;;;;;;;;;;;;5240926;26;87824;-69
2024/04/10 15:51:12;;;;;;;;;;;;;;;;;;5258320;26;90376;-73
2024/04/10 15:53:37;;;;;;;;;;;;;;;;;;5258733;26;87591;-74
2024/04/10 15:56:07;;;;;;;;;;;;;;;;;;5255306;26;87309;-73
2024/04/10 15:58:32;;;;;;;;;;;;;;;;;;5261643;26;87890;-72
2024/04/10 16:00:58;;;;;;;;;;;;;;;;;;5251655;26;87141;-73
2024/04/10 16:03:24;;;;;;;;;;;;;;;;;;5251336;26;87065;-73
2024/04/10 16:05:50;;;;;;;;;;;;;;;;;;5239665;26;87564;-74
2024/04/10 16:08:15;;;;;;;;;;;;;;;;;;5261931;26;87642;-73
2024/04/10 16:10:40;;;;;;;;;;;;;;;;;;5261488;26;87024;-73
2024/04/10 16:13:05;;;;;;;;;;;;;;;;;;5256902;26;87904;-70
2024/04/10 16:15:31;;;;;;;;;;;;;;;;;;5258047;26;87283;-71
2024/04/10 16:17:56;;;;;;;;;;;;;;;;;;5254289;26;88324;-70
2024/04/10 16:20:25;;;;;;;;;;;;;;;;;;5260514;26;88461;-73
2024/04/10 16:22:51;;;;;;;;;;;;;;;;;;5243460;26;86973;-70
2024/04/10 16:25:16;;;;;;;;;;;;;;;;;;5254950;26;88887;-70
2024/04/10 16:27:42;;;;;;;;;;;;;;;;;;5257053;26;89120;-69
2024/04/10 16:30:07;;;;;;;;;;;;;;;;;;5259853;26;87470;-73
2024/04/10 16:32:34;;;;;;;;;;;;;;;;;;5257482;26;88013;-71
2024/04/10 16:34:59;;;;;;;;;;;;;;;;;;5263216;26;88083;-69
2024/04/10 16:37:24;;;;;;;;;;;;;;;;;;5260286;26;88330;-71
2024/04/10 16:39:49;;;;;;;;;;;;;;;;;;5286143;26;90238;-70